Hopkins, Michigan
Current Conditions -  °F | °C
As of 3:53 PM on Friday 24 Oct 2014 (Local Time) from KBIV Reporting Station
Broken Clouds Broken Clouds  
Wind Chill: 60°   Ceiling: 3600
Heat Index: 60°   Visibility: 10mi
Dew Point: 50°   Wind: 8mph
Humidity: 69%   Direction: 260°W
Pressure: 30"   Gusts: NA
Location:  42.62°N, 85.76°W
Report Text: KBIV 241953Z AUTO 26007KT 10SM SCT015 BKN036 16/10 A3000 RMK AO2 SLP159 T01560100
Loading
Personal Weather Stations






























Interactive Weather Map
Tropical Storm Tracking
New forecast layout! Learn more

10-Day Weather Forecast

Advertisements
Track Severe Weather on mobile